Time;durP1;ratioP1;P1;durP2;ratioP2;P2;SDS_P1;SDS_P2;PMS_P1;PMS_P2;Temp;Humidity;BMP_temperature;BMP_pressure;BME280_temperature;BME280_humidity;BME280_pressure;Samples;Min_cycle;Max_cycle;Signal;HPM_P1;HPM_P2
2022/07/10 00:02:05;;;;;;;6.45;1.17;;;19.60;80.80;;;;;;5078253;28;20102;-85
2022/07/10 00:04:31;;;;;;;7.93;1.90;;;19.60;81.00;;;;;;5081943;28;20723;-85
2022/07/10 00:06:58;;;;;;;5.07;1.20;;;19.50;81.10;;;;;;5081115;28;20096;-85
2022/07/10 00:09:24;;;;;;;4.95;1.30;;;19.50;81.20;;;;;;5080329;28;20048;-89
2022/07/10 00:11:50;;;;;;;5.82;1.35;;;19.50;81.50;;;;;;5058445;28;20024;-90
2022/07/10 00:14:16;;;;;;;4.75;1.13;;;19.50;81.80;;;;;;5077315;28;20488;-89
2022/07/10 00:16:42;;;;;;;6.55;1.52;;;19.50;82.00;;;;;;5061750;28;20114;-90
2022/07/10 00:19:07;;;;;;;10.95;1.88;;;19.50;82.10;;;;;;5067260;28;20078;-90
2022/07/10 00:21:33;;;;;;;4.68;1.15;;;19.50;82.40;;;;;;5077114;28;20032;-90
2022/07/10 00:24:01;;;;;;;5.18;1.40;;;19.50;82.40;;;;;;5074083;28;20027;-90
2022/07/10 00:26:27;;;;;;;3.88;1.10;;;19.50;82.20;;;;;;5067372;28;20016;-90
2022/07/10 00:28:54;;;;;;;4.43;1.10;;;19.40;82.20;;;;;;5062320;28;20027;-90
2022/07/10 00:31:20;;;;;;;10.13;2.30;;;19.40;82.20;;;;;;5062604;28;20114;-89
2022/07/10 00:33:47;;;;;;;4.65;1.77;;;19.40;82.30;;;;;;5078603;28;20110;-90
2022/07/10 00:36:14;;;;;;;6.97;1.65;;;19.40;82.20;;;;;;5062508;28;20560;-90
2022/07/10 00:38:43;;;;;;;6.05;1.35;;;19.40;82.50;;;;;;5080696;28;20083;-91
2022/07/10 00:41:09;;;;;;;3.70;1.30;;;19.30;82.40;;;;;;5065425;28;20082;-90
2022/07/10 00:44:00;;;;;;;6.72;1.25;;;19.30;82.40;;;;;;5063040;28;20016;-89
2022/07/10 00:46:28;;;;;;;3.53;1.40;;;19.30;82.70;;;;;;5092170;28;20027;-90
2022/07/10 00:48:54;;;;;;;7.00;1.58;;;19.20;82.70;;;;;;5078021;28;20025;-84
2022/07/10 00:51:24;;;;;;;9.07;1.73;;;19.10;82.70;;;;;;5074386;28;20564;-85
2022/07/10 00:53:50;;;;;;;7.95;1.58;;;19.10;82.80;;;;;;5092239;28;20024;-86
2022/07/10 00:56:21;;;;;;;3.97;1.50;;;19.10;83.00;;;;;;5058687;28;20090;-85
2022/07/10 00:58:53;;;;;;;7.35;1.80;;;19.00;83.20;;;;;;5086273;28;20027;-85
2022/07/10 01:01:27;;;;;;;6.47;1.70;;;19.00;83.60;;;;;;5078915;28;20012;-85
2022/07/10 01:04:01;;;;;;;5.88;1.67;;;19.00;83.70;;;;;;5100229;28;20026;-89
2022/07/10 01:06:33;;;;;;;4.78;1.20;;;18.90;83.70;;;;;;5068301;28;20062;-89
2022/07/10 01:08:58;;;;;;;4.60;1.30;;;18.90;83.90;;;;;;5087672;28;20058;-89
2022/07/10 01:11:38;;;;;;;6.57;1.45;;;18.90;83.90;;;;;;5087890;28;20024;-89
2022/07/10 01:14:10;;;;;;;4.23;1.40;;;18.80;84.10;;;;;;5105465;28;20032;-89
2022/07/10 01:16:42;;;;;;;4.20;1.23;;;18.80;84.30;;;;;;5106956;28;20020;-89
2022/07/10 01:19:08;;;;;;;4.90;1.67;;;18.80;84.60;;;;;;5099882;28;20469;-89
2022/07/10 01:21:36;;;;;;;4.50;1.10;;;18.80;84.70;;;;;;5066064;28;20031;-89
2022/07/10 01:24:07;;;;;;;7.32;1.98;;;18.70;84.80;;;;;;5105052;28;20020;-89
2022/07/10 01:26:33;;;;;;;8.57;2.03;;;18.70;85.00;;;;;;5111304;28;20448;-89
2022/07/10 01:29:02;;;;;;;6.57;2.40;;;18.70;85.20;;;;;;5086362;28;20052;-89
2022/07/10 01:31:28;;;;;;;5.28;1.50;;;18.70;85.60;;;;;;5100119;28;20520;-90
2022/07/10 01:33:55;;;;;;;3.70;1.25;;;18.70;85.90;;;;;;5096878;28;20117;-89
2022/07/10 01:36:22;;;;;;;6.90;1.52;;;18.70;86.20;;;;;;5101422;28;20019;-89
2022/07/10 01:38:50;;;;;;;4.53;1.40;;;18.70;86.40;;;;;;5082069;28;20031;-90
2022/07/10 01:41:16;;;;;;;5.60;1.50;;;18.70;86.60;;;;;;5081253;28;20055;-90
2022/07/10 01:43:44;;;;;;;4.93;1.23;;;18.70;86.40;;;;;;5069409;28;20028;-90
2022/07/10 01:46:11;;;;;;;6.10;1.50;;;18.70;86.40;;;;;;5075851;28;20097;-89
2022/07/10 01:48:40;;;;;;;6.95;1.45;;;18.70;86.40;;;;;;5085105;28;20043;-90
2022/07/10 01:51:07;;;;;;;5.30;1.38;;;18.60;86.40;;;;;;5105447;28;20024;-89
2022/07/10 01:53:35;;;;;;;6.13;1.50;;;18.60;86.60;;;;;;5086497;28;20114;-89
2022/07/10 01:56:04;;;;;;;3.35;1.27;;;18.60;86.70;;;;;;5087163;28;20052;-90
2022/07/10 01:58:29;;;;;;;5.13;1.50;;;18.60;86.70;;;;;;5095089;28;20020;-89
2022/07/10 02:00:55;;;;;;;6.00;1.60;;;18.60;86.60;;;;;;5091540;28;20016;-92
2022/07/10 02:06:05;;;;;;;3.55;1.10;;;18.50;86.60;;;;;;5104640;28;20039;-92
2022/07/10 02:08:32;;;;;;;5.60;2.15;;;18.50;86.80;;;;;;5083628;28;20020;-93
2022/07/10 02:10:58;;;;;;;4.80;1.92;;;18.50;87.00;;;;;;5080405;28;20024;-92
2022/07/10 02:13:27;;;;;;;5.15;1.40;;;18.40;87.40;;;;;;5083376;28;20020;-92
2022/07/10 02:15:53;;;;;;;4.10;1.30;;;18.40;87.70;;;;;;5108181;28;20027;-92
2022/07/10 02:18:19;;;;;;;7.40;1.63;;;18.40;87.90;;;;;;5095228;28;20023;-92
2022/07/10 02:20:45;;;;;;;4.90;1.40;;;18.40;88.20;;;;;;5098160;28;20361;-92
2022/07/10 02:23:12;;;;;;;5.10;1.33;;;18.40;88.40;;;;;;5112189;28;20062;-93
2022/07/10 02:25:38;;;;;;;6.70;1.52;;;18.30;88.50;;;;;;5079578;28;20036;-92
2022/07/10 02:28:04;;;;;;;5.13;1.23;;;18.30;88.80;;;;;;5065248;28;20429;-92
2022/07/10 02:30:30;;;;;;;6.32;1.38;;;18.30;89.00;;;;;;5087514;28;20032;-91
2022/07/10 02:32:56;;;;;;;5.90;1.55;;;18.30;89.10;;;;;;5077795;28;20024;-91
2022/07/10 02:35:22;;;;;;;6.53;2.65;;;18.30;89.30;;;;;;5107379;28;20062;-91
2022/07/10 02:37:49;;;;;;;4.93;1.45;;;18.30;89.60;;;;;;5103647;28;20019;-85
2022/07/10 02:40:14;;;;;;;5.78;1.50;;;18.30;89.60;;;;;;5090828;28;20055;-86
2022/07/10 02:42:40;;;;;;;4.85;1.60;;;18.20;89.70;;;;;;5090987;28;20422;-86
2022/07/10 02:45:07;;;;;;;5.80;1.23;;;18.20;89.80;;;;;;5073135;28;20028;-85
2022/07/10 02:47:36;;;;;;;6.90;1.60;;;18.10;90.00;;;;;;5086773;28;20030;-86
2022/07/10 02:50:02;;;;;;;5.60;2.13;;;18.10;90.30;;;;;;5058727;28;20086;-86
2022/07/10 02:52:30;;;;;;;7.47;1.67;;;18.00;90.40;;;;;;5083900;28;20126;-86
2022/07/10 02:54:57;;;;;;;7.63;1.45;;;18.00;90.60;;;;;;5086988;28;20031;-86
2022/07/10 02:57:23;;;;;;;6.95;1.83;;;17.90;90.60;;;;;;5074894;28;20020;-86
2022/07/10 02:59:51;;;;;;;6.00;1.77;;;17.90;90.90;;;;;;5077149;28;20236;-86
2022/07/10 03:02:19;;;;;;;5.97;1.48;;;17.80;91.00;;;;;;5060845;28;20016;-85
2022/07/10 03:04:45;;;;;;;10.27;2.03;;;17.80;91.20;;;;;;5074557;28;20444;-85
2022/07/10 03:07:10;;;;;;;6.70;2.25;;;17.80;91.30;;;;;;5095573;28;20012;-85
2022/07/10 03:09:36;;;;;;;7.40;1.67;;;17.80;91.40;;;;;;5058682;28;20027;-85
2022/07/10 03:12:02;;;;;;;8.48;2.10;;;17.80;91.50;;;;;;5062143;28;20031;-85
2022/07/10 03:14:28;;;;;;;6.97;1.88;;;17.70;91.40;;;;;;5091993;28;20107;-85
2022/07/10 03:16:55;;;;;;;7.78;1.38;;;17.70;91.50;;;;;;5063231;28;20122;-85
2022/07/10 03:19:21;;;;;;;10.13;1.60;;;17.70;91.60;;;;;;5074616;28;20025;-86
2022/07/10 03:21:58;;;;;;;5.65;1.45;;;17.70;91.70;;;;;;5106190;28;20016;-92
2022/07/10 03:24:55;;;;;;;5.75;1.67;;;17.70;91.90;;;;;;5095107;28;20089;-92
2022/07/10 03:28:12;;;;;;;5.30;1.42;;;17.70;92.10;;;;;;5097649;28;20001;-92
2022/07/10 03:30:51;;;;;;;4.43;1.35;;;17.70;92.10;;;;;;4993772;28;20125;-93
2022/07/10 03:33:34;;;;;;;5.03;1.70;;;17.60;92.20;;;;;;5057474;27;20107;-91
2022/07/10 03:36:09;;;;;;;8.35;1.50;;;17.70;92.30;;;;;;5101281;28;20024;-92
2022/07/10 03:38:50;;;;;;;8.57;1.63;;;17.70;92.50;;;;;;5058793;28;20037;-93
2022/07/10 03:41:24;;;;;;;;;;;17.70;92.60;;;;;;5043662;28;20092;-93
2022/07/10 03:43:55;;;;;;;9.38;2.03;;;17.70;92.80;;;;;;5074443;28;19996;-92
2022/07/10 03:46:42;;;;;;;;;;;17.70;92.70;;;;;;5046119;28;20097;-93
2022/07/10 03:49:52;;;;;;;6.90;1.60;;;17.70;93.00;;;;;;5060755;28;19909;-93
2022/07/10 03:52:26;;;;;;;3.58;1.10;;;17.70;92.90;;;;;;5002126;28;20026;-93
2022/07/10 03:55:14;;;;;;;5.10;1.30;;;17.70;92.90;;;;;;5004625;28;20601;-93
2022/07/10 04:00:38;;;;;;;3.85;1.35;;;17.70;93.20;;;;;;5023485;28;20126;-93
2022/07/10 04:03:22;;;;;;;7.20;1.60;;;17.70;93.30;;;;;;5045574;28;20045;-92
2022/07/10 04:05:59;;;;;;;6.45;1.25;;;17.70;93.30;;;;;;5033036;28;20029;-91
2022/07/10 04:11:35;;;;;;;6.28;1.70;;;17.70;93.40;;;;;;5029413;28;20029;-91
2022/07/10 04:16:53;;;;;;;6.45;1.50;;;17.70;93.50;;;;;;5019048;28;20033;-92
2022/07/10 04:19:19;;;;;;;8.43;1.88;;;17.70;93.60;;;;;;4982296;28;20522;-93
2022/07/10 04:22:05;;;;;;;4.55;1.10;;;17.80;93.60;;;;;;5013612;28;20139;-92
2022/07/10 04:24:34;;;;;;;3.95;1.25;;;17.80;93.60;;;;;;5014610;28;20021;-93
2022/07/10 04:26:59;;;;;;;6.53;1.70;;;17.80;93.50;;;;;;5005777;28;20029;-93
2022/07/10 04:29:32;;;;;;;5.63;1.35;;;17.70;93.50;;;;;;4988059;28;20029;-93
2022/07/10 04:32:04;;;;;;;5.43;1.30;;;17.70;93.60;;;;;;5023946;28;20391;-92
2022/07/10 04:34:50;;;;;;;4.45;1.58;;;17.70;93.50;;;;;;5018084;28;20040;-90
2022/07/10 04:37:36;;;;;;;5.85;1.40;;;17.70;93.70;;;;;;5041304;28;20048;-90
2022/07/10 04:40:05;;;;;;;5.78;1.63;;;17.70;93.80;;;;;;5087369;28;20048;-87
2022/07/10 04:42:34;;;;;;;9.20;1.88;;;17.70;93.90;;;;;;5100582;28;20025;-89
2022/07/10 04:45:22;;;;;;;9.98;1.40;;;17.70;94.00;;;;;;5097582;28;20036;-91
2022/07/10 04:47:50;;;;;;;6.20;1.70;;;17.70;94.10;;;;;;5097757;28;20087;-92
2022/07/10 04:50:16;;;;;;;7.72;1.85;;;17.70;94.20;;;;;;5070990;28;20020;-90
2022/07/10 04:52:51;;;;;;;5.90;1.80;;;17.70;94.30;;;;;;5086371;28;20383;-89
2022/07/10 04:55:20;;;;;;;6.32;1.27;;;17.70;94.30;;;;;;5098076;28;20487;-90
2022/07/10 04:57:45;;;;;;;8.57;1.50;;;17.70;94.40;;;;;;5076022;28;20020;-89
2022/07/10 05:00:19;;;;;;;8.98;1.73;;;17.70;94.30;;;;;;5062437;28;20061;-90
2022/07/10 05:02:54;;;;;;;8.13;1.50;;;17.70;94.30;;;;;;5067133;28;20020;-88
2022/07/10 05:05:23;;;;;;;7.15;1.55;;;17.70;94.30;;;;;;5076909;28;20036;-89
2022/07/10 05:08:01;;;;;;;5.97;1.73;;;17.70;94.40;;;;;;5099628;28;20027;-89
2022/07/10 05:10:35;;;;;;;5.68;1.33;;;17.70;94.50;;;;;;5091720;28;20028;-89
2022/07/10 05:13:19;;;;;;;6.07;1.30;;;17.70;94.50;;;;;;5058850;28;20039;-89
2022/07/10 05:15:47;;;;;;;6.68;1.38;;;17.70;94.50;;;;;;5076088;28;20037;-90
2022/07/10 05:18:16;;;;;;;7.05;1.52;;;17.70;94.60;;;;;;5091746;28;20541;-89
2022/07/10 05:20:50;;;;;;;8.00;1.70;;;17.70;94.60;;;;;;5082317;28;20050;-89
2022/07/10 05:23:24;;;;;;;5.10;1.63;;;17.70;94.60;;;;;;5062781;28;20542;-89
2022/07/10 05:25:58;;;;;;;5.82;1.60;;;17.70;94.50;;;;;;5080366;28;20072;-89
2022/07/10 05:28:36;;;;;;;6.25;1.27;;;17.70;94.50;;;;;;5064582;28;20017;-88
2022/07/10 05:31:01;;;;;;;6.45;1.30;;;17.70;94.50;;;;;;5099377;28;20468;-89
2022/07/10 05:33:35;;;;;;;5.90;1.65;;;17.70;94.70;;;;;;5094667;28;20023;-89
2022/07/10 05:36:27;;;;;;;5.10;1.50;;;17.80;94.90;;;;;;5080116;23;20065;-88
2022/07/10 05:39:03;;;;;;;6.30;1.50;;;17.80;95.10;;;;;;5036134;28;20487;-89
2022/07/10 05:41:32;;;;;;;9.75;2.25;;;17.80;95.20;;;;;;4999139;28;20057;-88
2022/07/10 05:43:58;;;;;;;7.93;2.10;;;17.80;95.30;;;;;;5016148;28;20024;-89
2022/07/10 05:46:35;;;;;;;7.50;1.83;;;17.80;95.20;;;;;;5022685;28;20033;-89
2022/07/10 05:49:01;;;;;;;4.30;1.13;;;17.80;95.20;;;;;;5023675;28;20038;-89
2022/07/10 05:52:11;;;;;;;6.90;1.80;;;17.80;95.30;;;;;;5004935;28;20514;-89
2022/07/10 05:54:37;;;;;;;4.85;1.20;;;17.80;95.40;;;;;;5038678;28;20036;-89
2022/07/10 05:57:04;;;;;;;5.00;1.52;;;17.80;95.40;;;;;;5005694;28;20029;-89
2022/07/10 05:59:35;;;;;;;6.28;1.65;;;17.80;95.50;;;;;;5005223;28;20593;-89
2022/07/10 06:02:07;;;;;;;10.93;1.70;;;17.90;95.60;;;;;;5021874;28;20045;-89
2022/07/10 06:04:50;;;;;;;7.22;1.40;;;17.90;95.60;;;;;;5006559;28;20514;-90
2022/07/10 06:07:27;;;;;;;7.88;1.77;;;17.80;95.60;;;;;;5021062;28;20021;-89
2022/07/10 06:09:59;;;;;;;7.70;1.67;;;17.90;95.70;;;;;;5003932;28;20045;-88
2022/07/10 06:12:33;;;;;;;7.55;1.58;;;17.80;95.80;;;;;;5019752;28;20045;-88
2022/07/10 06:15:25;;;;;;;4.10;1.30;;;17.80;95.90;;;;;;5019295;28;20037;-89
2022/07/10 06:17:51;;;;;;;8.67;2.07;;;17.90;96.00;;;;;;5018190;28;20028;-89
2022/07/10 06:20:19;;;;;;;6.07;1.50;;;17.90;96.00;;;;;;5018740;28;20018;-90
2022/07/10 06:22:46;;;;;;;12.20;2.22;;;17.90;96.10;;;;;;5016154;28;20026;-89
2022/07/10 06:25:18;;;;;;;5.97;1.40;;;17.90;96.30;;;;;;5019393;28;20022;-89
2022/07/10 06:28:20;;;;;;;8.00;1.55;;;17.80;96.50;;;;;;5003641;28;20029;-89
2022/07/10 06:31:43;;;;;;;8.07;1.83;;;17.90;96.70;;;;;;5006778;28;20049;-88
2022/07/10 06:34:38;;;;;;;6.82;1.70;;;17.90;96.90;;;;;;5046375;28;20037;-89
2022/07/10 06:37:16;;;;;;;7.10;1.73;;;17.90;97.00;;;;;;5009598;28;20049;-89
2022/07/10 06:39:42;;;;;;;7.13;1.70;;;17.90;97.20;;;;;;5028245;28;20029;-89
2022/07/10 06:43:07;;;;;;;6.75;1.60;;;17.90;97.20;;;;;;5014269;28;20513;-89
2022/07/10 06:46:00;;;;;;;11.07;2.38;;;17.90;97.30;;;;;;5020596;28;20059;-89
2022/07/10 06:49:24;;;;;;;7.18;1.90;;;18.00;97.40;;;;;;5020548;28;20045;-88
2022/07/10 06:52:41;;;;;;;8.43;2.10;;;17.90;97.70;;;;;;4985587;28;20062;-87
2022/07/10 06:55:15;;;;;;;11.30;1.90;;;17.90;98.10;;;;;;4952865;28;20047;-88
2022/07/10 06:57:47;;;;;;;8.02;1.70;;;18.00;98.70;;;;;;4962039;28;20118;-90
2022/07/10 07:00:19;;;;;;;7.22;1.73;;;18.00;98.90;;;;;;4980578;28;20026;-89
2022/07/10 07:09:30;;;;;;;6.75;1.70;;;18.00;99.80;;;;;;5044780;28;20025;-90
2022/07/10 07:24:20;;;;;;;9.40;2.05;;;18.00;99.90;;;;;;4947553;29;20083;-89
2022/07/10 07:27:06;;;;;;;9.95;2.25;;;18.00;99.90;;;;;;4936758;29;20044;-89
2022/07/10 07:36:38;;;;;;;;;;;18.00;99.90;;;;;;4915655;29;20066;-86
2022/07/10 07:47:12;;;;;;;11.63;2.10;;;18.00;99.90;;;;;;4900731;29;20495;-89
2022/07/10 07:49:56;;;;;;;8.27;2.13;;;18.00;99.90;;;;;;4917076;29;20037;-91
2022/07/10 07:55:43;;;;;;;8.43;1.92;;;18.00;99.90;;;;;;4939082;29;20528;-90
2022/07/10 07:58:48;;;;;;;9.10;1.90;;;18.00;99.90;;;;;;4921724;29;20024;-89
2022/07/10 08:01:19;;;;;;;5.78;2.00;;;18.00;99.90;;;;;;4918228;29;20573;-90
2022/07/10 08:11:33;;;;;;;7.53;2.17;;;18.10;99.90;;;;;;4973116;28;20041;-88
2022/07/10 08:18:08;;;;;;;9.75;1.80;;;18.10;99.90;;;;;;4997136;28;20069;-90
2022/07/10 08:20:43;;;;;;;10.77;1.90;;;18.10;99.90;;;;;;4970509;28;20034;-89
2022/07/10 08:23:27;;;;;;;6.32;1.77;;;18.10;99.90;;;;;;4953866;28;20061;-89
2022/07/10 08:29:34;;;;;;;7.32;1.67;;;18.10;99.90;;;;;;4985759;28;20037;-89
2022/07/10 08:32:09;;;;;;;7.57;1.55;;;18.20;99.90;;;;;;5003617;28;20113;-90
2022/07/10 08:34:38;;;;;;;11.07;2.25;;;18.20;99.90;;;;;;5002018;28;20026;-88
2022/07/10 08:40:40;;;;;;;4.43;1.48;;;18.30;99.90;;;;;;4950801;29;20039;-89
2022/07/10 08:43:32;;;;;;;6.18;2.08;;;18.30;99.90;;;;;;4960460;28;20082;-87
2022/07/10 08:46:32;;;;;;;4.25;1.50;;;18.40;99.90;;;;;;4950879;29;20043;-90
2022/07/10 08:52:41;;;;;;;8.38;2.47;;;18.40;99.90;;;;;;4925113;29;20051;-90
2022/07/10 08:55:16;;;;;;;7.85;1.60;;;18.50;99.90;;;;;;4948622;29;20095;-91
2022/07/10 09:01:29;;;;;;;5.97;1.60;;;18.50;99.90;;;;;;4950985;29;20064;-90
2022/07/10 09:04:32;;;;;;;6.63;1.73;;;18.60;99.90;;;;;;4940782;29;20031;-90
2022/07/10 09:07:17;;;;;;;3.97;1.40;;;18.60;99.90;;;;;;4956827;28;20551;-91
2022/07/10 09:10:32;;;;;;;5.25;1.70;;;18.60;99.90;;;;;;4962676;28;20043;-89
2022/07/10 09:13:55;;;;;;;4.05;1.20;;;18.60;99.90;;;;;;4915208;28;20107;-90
2022/07/10 09:20:50;;;;;;;;;;;;;;;;;;;;;
2022/07/10 09:30:02;;;;;;;4.43;1.20;;;18.90;99.90;;;;;;4926651;29;20051;-89
2022/07/10 09:32:39;;;;;;;2.40;1.17;;;19.00;99.90;;;;;;5004463;28;20173;-88
2022/07/10 09:38:22;;;;;;;4.38;1.40;;;19.10;99.90;;;;;;5019643;28;20037;-88
2022/07/10 09:44:13;;;;;;;5.28;1.20;;;19.20;99.90;;;;;;5042497;28;20425;-89
2022/07/10 09:46:46;;;;;;;5.07;1.70;;;19.20;99.90;;;;;;4984764;28;20038;-89
2022/07/10 09:53:10;;;;;;;3.67;1.10;;;19.30;99.90;;;;;;4986045;28;20026;-89
2022/07/10 09:55:56;;;;;;;2.97;1.20;;;19.30;99.90;;;;;;5019164;28;20034;-90
2022/07/10 10:04:56;;;;;;;7.07;1.48;;;19.40;99.90;;;;;;5002039;28;20066;-90
2022/07/10 10:07:26;;;;;;;5.88;1.48;;;19.40;99.90;;;;;;4993066;28;20047;-88
2022/07/10 10:09:56;;;;;;;6.13;1.70;;;19.40;99.90;;;;;;5009145;28;20030;-89
2022/07/10 10:12:35;;;;;;;3.13;1.43;;;19.50;99.90;;;;;;4978611;28;20030;-89
2022/07/10 10:15:02;;;;;;;4.10;1.30;;;19.50;99.90;;;;;;4997180;28;20061;-88
2022/07/10 10:17:28;;;;;;;3.22;1.13;;;19.50;99.90;;;;;;4993897;28;20456;-88
2022/07/10 10:22:42;;;;;;;2.80;1.17;;;19.60;99.90;;;;;;4995105;28;20042;-88
2022/07/10 10:25:09;;;;;;;3.75;1.20;;;19.60;99.90;;;;;;4993623;28;20030;-88
2022/07/10 10:27:41;;;;;;;5.85;1.45;;;19.70;99.90;;;;;;4994322;28;20026;-89
2022/07/10 10:30:17;;;;;;;3.83;1.65;;;19.80;99.90;;;;;;4986837;28;20112;-88
2022/07/10 10:32:43;;;;;;;5.68;1.92;;;19.80;99.90;;;;;;5018910;28;20025;-88
2022/07/10 10:35:31;;;;;;;3.05;1.30;;;19.90;99.70;;;;;;5021008;28;20056;-88
2022/07/10 10:37:57;;;;;;;4.82;1.50;;;19.90;99.30;;;;;;5027942;28;20026;-88
2022/07/10 10:40:38;;;;;;;4.10;1.50;;;20.00;99.20;;;;;;5003643;28;20024;-88
2022/07/10 10:43:20;;;;;;;5.93;1.27;;;20.00;99.40;;;;;;5013738;28;20052;-89
2022/07/10 10:45:47;;;;;;;4.72;1.38;;;20.10;99.20;;;;;;5013902;28;20385;-89
2022/07/10 10:48:15;;;;;;;2.80;1.30;;;20.10;99.10;;;;;;5013032;28;20029;-88
2022/07/10 10:50:49;;;;;;;5.85;1.52;;;20.10;99.10;;;;;;5002371;28;20029;-88
2022/07/10 10:53:31;;;;;;;3.05;1.08;;;20.20;99.00;;;;;;5011421;28;20452;-89
2022/07/10 10:56:00;;;;;;;2.60;1.05;;;20.20;98.80;;;;;;5017071;28;20429;-88
2022/07/10 10:58:27;;;;;;;2.50;1.02;;;20.30;98.80;;;;;;5018310;28;20022;-87
2022/07/10 11:01:06;;;;;;;3.22;1.30;;;20.30;98.80;;;;;;5018765;28;20048;-87
2022/07/10 11:03:32;;;;;;;4.22;1.45;;;20.30;98.70;;;;;;5016796;28;20014;-89
2022/07/10 11:05:58;;;;;;;2.72;1.10;;;20.40;98.60;;;;;;5018920;28;20083;-88
2022/07/10 11:08:45;;;;;;;4.18;0.95;;;20.40;98.40;;;;;;5017027;28;20026;-88
2022/07/10 11:11:30;;;;;;;4.30;1.33;;;20.40;98.10;;;;;;5014579;28;20057;-89
2022/07/10 11:13:57;;;;;;;3.47;1.20;;;20.40;98.10;;;;;;5013128;28;20025;-88
2022/07/10 11:16:24;;;;;;;1.85;0.95;;;20.50;98.20;;;;;;5027890;28;20503;-89
2022/07/10 11:19:02;;;;;;;2.20;0.95;;;20.50;98.10;;;;;;5015832;28;20029;-90
2022/07/10 11:21:47;;;;;;;2.80;1.10;;;20.50;98.10;;;;;;5016557;28;20014;-88
2022/07/10 11:24:39;;;;;;;2.72;1.13;;;20.60;98.10;;;;;;5011334;28;20033;-90
2022/07/10 11:27:23;;;;;;;2.65;1.10;;;20.70;98.00;;;;;;4995768;28;20454;-90
2022/07/10 11:29:57;;;;;;;2.67;1.15;;;20.70;97.80;;;;;;5021618;28;20049;-89
2022/07/10 11:32:50;;;;;;;4.03;1.17;;;20.80;97.60;;;;;;5017364;28;20065;-89
2022/07/10 11:35:18;;;;;;;2.70;1.30;;;20.80;97.60;;;;;;5008495;28;20037;-89
2022/07/10 11:37:56;;;;;;;3.08;1.10;;;20.90;97.50;;;;;;5024248;28;20076;-89
2022/07/10 11:40:22;;;;;;;2.67;1.17;;;20.90;97.40;;;;;;5013189;28;20056;-90
2022/07/10 11:42:58;;;;;;;2.85;1.00;;;20.90;97.30;;;;;;4999917;28;20034;-89
2022/07/10 11:45:33;;;;;;;2.17;1.13;;;20.90;97.30;;;;;;4999952;28;20072;-88
2022/07/10 11:48:00;;;;;;;2.92;1.00;;;21.00;97.40;;;;;;5017020;28;20489;-89
2022/07/10 11:50:36;;;;;;;4.78;1.30;;;21.00;97.40;;;;;;5017982;28;20029;-87
2022/07/10 11:53:28;;;;;;;2.08;0.80;;;21.10;97.20;;;;;;5017334;28;20558;-88
2022/07/10 11:55:54;;;;;;;3.92;1.10;;;21.10;97.20;;;;;;4991025;28;20049;-88
2022/07/10 11:58:20;;;;;;;5.25;1.50;;;21.10;97.10;;;;;;5016456;28;20026;-86
2022/07/10 12:01:06;;;;;;;2.65;1.20;;;21.10;97.10;;;;;;5001109;28;20060;-86
2022/07/10 12:04:16;;;;;;;4.72;1.45;;;21.20;97.20;;;;;;5000546;28;20088;-86
2022/07/10 12:13:40;;;;;;;3.88;1.30;;;21.30;96.90;;;;;;5031488;28;20341;-86
2022/07/10 12:16:08;;;;;;;3.58;1.25;;;21.30;96.70;;;;;;5015598;28;20021;-84
2022/07/10 12:18:34;;;;;;;3.78;1.20;;;21.30;96.50;;;;;;5033782;28;20025;-84
2022/07/10 12:21:01;;;;;;;4.18;1.30;;;21.40;96.40;;;;;;4999543;28;20025;-84
2022/07/10 12:23:29;;;;;;;3.35;1.38;;;21.40;96.50;;;;;;4999848;28;20099;-85
2022/07/10 12:25:56;;;;;;;3.92;1.40;;;21.40;96.40;;;;;;5016278;28;20028;-84
2022/07/10 12:28:22;;;;;;;2.65;1.25;;;21.40;96.40;;;;;;4983518;28;20037;-85
2022/07/10 12:30:49;;;;;;;7.68;1.42;;;21.50;95.90;;;;;;5016012;28;20017;-84
2022/07/10 12:33:22;;;;;;;3.90;1.52;;;21.50;95.90;;;;;;5000137;28;20029;-84
2022/07/10 12:35:58;;;;;;;3.88;1.30;;;21.50;95.90;;;;;;5000543;28;20478;-85
2022/07/10 12:38:31;;;;;;;3.22;1.20;;;21.50;95.90;;;;;;5032455;28;20067;-86
2022/07/10 12:41:13;;;;;;;4.70;1.30;;;21.50;95.60;;;;;;5016011;28;20021;-84
2022/07/10 12:43:40;;;;;;;3.65;1.02;;;21.60;95.70;;;;;;5015538;28;20475;-85
2022/07/10 12:46:19;;;;;;;2.90;1.15;;;21.60;95.60;;;;;;4999453;28;20025;-84
2022/07/10 12:52:41;;;;;;;4.35;1.20;;;21.70;95.60;;;;;;4971890;28;20496;-84
2022/07/10 12:55:47;;;;;;;3.30;1.08;;;21.80;95.70;;;;;;4972365;28;20031;-85
2022/07/10 13:02:16;;;;;;;2.33;0.95;;;21.90;95.60;;;;;;4976094;28;20105;-84
2022/07/10 13:05:01;;;;;;;4.60;1.17;;;21.90;95.40;;;;;;4951370;28;20069;-84
2022/07/10 13:07:42;;;;;;;3.20;0.85;;;22.00;95.20;;;;;;4969156;28;20471;-84
2022/07/10 13:14:20;;;;;;;2.17;1.10;;;22.10;95.20;;;;;;4975848;28;20089;-85
2022/07/10 13:17:21;;;;;;;4.80;1.58;;;22.10;95.00;;;;;;4993959;28;20104;-85
2022/07/10 13:20:06;;;;;;;2.65;1.13;;;22.20;94.90;;;;;;4983533;28;20030;-84
2022/07/10 13:26:49;;;;;;;3.38;1.10;;;22.20;94.90;;;;;;5029831;28;20032;-83
2022/07/10 13:29:14;;;;;;;2.03;0.95;;;22.20;94.70;;;;;;5036063;28;20022;-84
2022/07/10 13:32:29;;;;;;;4.88;1.40;;;22.30;94.40;;;;;;5002516;28;20099;-85
2022/07/10 13:35:10;;;;;;;2.85;1.63;;;22.40;94.40;;;;;;5018729;28;20021;-86
2022/07/10 13:37:37;;;;;;;5.28;1.60;;;22.40;94.10;;;;;;5002686;28;20053;-85
2022/07/10 13:40:03;;;;;;;2.90;1.30;;;22.50;94.00;;;;;;5018987;28;20112;-85
2022/07/10 13:42:29;;;;;;;3.70;1.63;;;22.50;94.00;;;;;;5018713;28;20022;-84
2022/07/10 13:44:55;;;;;;;3.80;1.73;;;22.50;93.90;;;;;;5002425;28;20486;-84
2022/07/10 13:47:39;;;;;;;4.60;1.17;;;22.60;93.80;;;;;;5003254;28;20108;-84
2022/07/10 13:54:05;;;;;;;5.47;1.88;;;22.70;93.80;;;;;;4974765;28;20059;-84
2022/07/10 13:56:34;;;;;;;2.03;1.10;;;22.70;93.70;;;;;;5018665;28;20493;-85
2022/07/10 13:59:01;;;;;;;2.13;1.13;;;22.70;93.40;;;;;;5037003;28;20512;-86
2022/07/10 14:05:37;;;;;;;;;;;;;;;;;;;;;
2022/07/10 14:08:50;;;;;;;4.28;1.33;;;22.80;93.30;;;;;;4985983;28;20093;-85
2022/07/10 14:11:44;;;;;;;4.65;1.42;;;22.90;93.20;;;;;;4959121;28;20023;-86
2022/07/10 14:14:11;;;;;;;3.00;1.23;;;22.90;93.00;;;;;;4930453;28;20058;-85
2022/07/10 14:16:49;;;;;;;2.72;1.40;;;22.90;93.00;;;;;;4945358;28;20045;-86
2022/07/10 14:19:20;;;;;;;3.78;1.40;;;23.00;93.00;;;;;;4993083;28;20053;-85
2022/07/10 14:21:49;;;;;;;4.00;1.35;;;23.00;92.80;;;;;;5021382;28;20034;-85
2022/07/10 14:24:15;;;;;;;1.52;1.02;;;23.10;92.90;;;;;;5002654;28;20041;-87
2022/07/10 14:26:41;;;;;;;38.17;2.72;;;23.20;92.20;;;;;;5019219;28;20466;-88
2022/07/10 14:29:06;;;;;;;9.30;1.45;;;23.20;92.00;;;;;;5003457;28;20041;-88
2022/07/10 14:31:35;;;;;;;5.25;1.45;;;23.30;91.90;;;;;;5002278;28;20076;-88
2022/07/10 14:34:01;;;;;;;8.70;1.73;;;23.30;91.60;;;;;;5012895;28;20030;-88
2022/07/10 14:36:33;;;;;;;2.38;1.10;;;23.30;91.30;;;;;;5026313;28;20167;-87
2022/07/10 14:38:59;;;;;;;9.10;1.70;;;23.40;91.20;;;;;;5021016;28;20037;-87
2022/07/10 14:41:28;;;;;;;2.50;1.20;;;23.40;91.20;;;;;;5008358;28;20490;-88
2022/07/10 14:44:06;;;;;;;4.45;1.45;;;23.50;91.10;;;;;;5017643;28;20045;-87
2022/07/10 14:46:35;;;;;;;3.47;1.23;;;23.60;91.00;;;;;;5003456;28;20038;-88
2022/07/10 14:52:10;;;;;;;3.08;1.00;;;23.60;90.50;;;;;;4981607;28;20120;-88
2022/07/10 14:54:51;;;;;;;4.45;1.15;;;23.70;90.40;;;;;;5017339;28;20052;-88
2022/07/10 14:57:22;;;;;;;2.78;1.20;;;23.70;90.10;;;;;;5017622;28;20037;-88
2022/07/10 14:59:57;;;;;;;1.50;1.00;;;23.70;90.00;;;;;;5017982;28;20029;-90
2022/07/10 15:02:46;;;;;;;4.07;1.45;;;23.70;89.80;;;;;;5002789;28;20121;-89
2022/07/10 15:05:19;;;;;;;4.85;1.50;;;23.70;89.60;;;;;;5018465;28;20522;-88
2022/07/10 15:07:54;;;;;;;3.13;1.17;;;23.70;89.30;;;;;;5018146;28;20025;-89
2022/07/10 15:10:33;;;;;;;5.95;1.10;;;23.70;89.30;;;;;;5001133;28;20026;-87
2022/07/10 15:12:59;;;;;;;2.20;1.02;;;23.80;89.40;;;;;;5010404;28;20467;-90
2022/07/10 15:15:25;;;;;;;2.15;1.17;;;23.80;89.30;;;;;;5001431;28;20025;-89
2022/07/10 15:17:51;;;;;;;3.13;1.20;;;23.80;88.80;;;;;;5017910;28;20418;-89
2022/07/10 15:20:18;;;;;;;4.88;1.50;;;23.80;88.40;;;;;;5012726;28;20532;-88
2022/07/10 15:22:45;;;;;;;6.22;1.42;;;23.80;88.10;;;;;;5000591;28;20048;-88
2022/07/10 15:25:10;;;;;;;3.90;1.27;;;23.80;86.90;;;;;;5017680;28;20026;-88
2022/07/10 15:27:36;;;;;;;4.47;1.30;;;23.80;87.00;;;;;;5001010;28;20030;-89
2022/07/10 15:30:03;;;;;;;3.97;1.20;;;23.80;87.40;;;;;;5019892;28;20022;-88
2022/07/10 15:32:29;;;;;;;3.97;1.30;;;23.90;87.80;;;;;;5011266;28;20040;-89
2022/07/10 15:34:55;;;;;;;2.88;1.10;;;23.90;87.90;;;;;;5020727;28;20018;-89
2022/07/10 15:37:22;;;;;;;3.97;1.40;;;23.90;88.10;;;;;;5021761;28;20087;-88
2022/07/10 15:39:48;;;;;;;2.97;1.52;;;23.90;87.90;;;;;;5029076;28;20047;-89
2022/07/10 15:42:14;;;;;;;4.22;1.45;;;24.00;87.90;;;;;;4980986;28;20527;-88
2022/07/10 15:44:43;;;;;;;3.08;1.55;;;24.00;88.10;;;;;;5002533;28;20045;-89
2022/07/10 15:47:08;;;;;;;4.50;1.45;;;24.00;87.90;;;;;;4994377;28;20364;-89